Terminal Aerodrome Forecast
Issued by NWS Amarillo, TX

Home | Current Version | Previous Version | Text Only | Print | Product List | Glossary On
Versions: 1 2 3 4 5 6 7 8 9 10 11 12
923
FTUS44 KAMA 202320
TAFDHT
TAF
KDHT 202320Z 2100/2124 20019KT P6SM SKC
      TEMPO 2100/2102 21020G30KT
     FM211600 34020G30KT P6SM BKN150=

USA.gov is the U.S. government's official web portal to all federal, state and local government web resources and services.